createdAt,value
2018-06-29T00:01:29.428Z,17.50
2018-06-29T00:03:41.783Z,17.55
2018-06-29T00:05:54.230Z,17.56
2018-06-29T00:08:06.577Z,17.52
2018-06-29T00:10:19.539Z,17.50
2018-06-29T00:12:31.890Z,17.55
2018-06-29T00:14:44.214Z,17.54
2018-06-29T00:16:56.634Z,17.53
2018-06-29T00:19:08.949Z,17.51
2018-06-29T00:21:21.425Z,17.52
2018-06-29T00:23:33.779Z,17.48
2018-06-29T00:25:46.081Z,17.50
2018-06-29T00:27:58.445Z,17.50
2018-06-29T00:30:10.846Z,17.52
2018-06-29T00:32:23.234Z,17.53
2018-06-29T00:34:35.608Z,17.53
2018-06-29T00:36:47.953Z,17.52
2018-06-29T00:39:00.307Z,17.56
2018-06-29T00:41:12.671Z,17.58
2018-06-29T00:43:25.055Z,17.56
2018-06-29T00:45:37.634Z,17.54
2018-06-29T00:47:49.869Z,17.52
2018-06-29T00:50:02.328Z,17.48
2018-06-29T00:52:14.929Z,17.47
2018-06-29T00:54:27.299Z,17.51
2018-06-29T00:56:39.730Z,17.44
2018-06-29T00:58:52.126Z,17.41
2018-06-29T01:01:04.581Z,17.37
2018-06-29T01:03:17.122Z,17.30
2018-06-29T01:05:29.558Z,17.31
2018-06-29T01:07:42.065Z,17.35
2018-06-29T01:09:54.460Z,17.37
2018-06-29T01:12:06.802Z,17.40
2018-06-29T01:14:19.138Z,17.38
2018-06-29T01:16:31.614Z,17.37
2018-06-29T01:18:44.014Z,17.38
2018-06-29T01:20:56.493Z,17.39
2018-06-29T01:23:09.101Z,17.37
2018-06-29T01:25:21.410Z,17.35
2018-06-29T01:27:33.842Z,17.37
2018-06-29T01:29:46.182Z,17.36
2018-06-29T01:31:58.494Z,17.36
2018-06-29T01:34:10.986Z,17.34
2018-06-29T01:36:23.418Z,17.36
2018-06-29T01:38:35.789Z,17.38
2018-06-29T01:40:48.143Z,17.38
2018-06-29T01:43:00.463Z,17.37
2018-06-29T01:45:12.795Z,17.38
2018-06-29T01:47:25.385Z,17.38
2018-06-29T01:49:37.871Z,17.37
2018-06-29T01:51:50.239Z,17.34
2018-06-29T01:54:02.891Z,17.35
2018-06-29T01:56:15.262Z,17.34
2018-06-29T01:58:27.623Z,17.35
2018-06-29T02:00:39.946Z,17.35
2018-06-29T02:02:52.343Z,17.34
2018-06-29T02:05:04.812Z,17.33
2018-06-29T02:07:17.151Z,17.31
2018-06-29T02:09:29.602Z,17.27
2018-06-29T02:11:42.103Z,17.23
2018-06-29T02:13:54.838Z,17.22
2018-06-29T02:16:07.410Z,17.19
2018-06-29T02:18:19.780Z,17.22
2018-06-29T02:20:32.141Z,17.23
2018-06-29T02:22:44.548Z,17.27
2018-06-29T02:24:57.002Z,17.28
2018-06-29T02:27:09.378Z,17.31
2018-06-29T02:29:21.843Z,17.35
2018-06-29T02:31:34.183Z,17.39
2018-06-29T02:33:46.542Z,17.42
2018-06-29T02:35:59.251Z,17.47
2018-06-29T02:38:11.589Z,17.53
2018-06-29T02:40:24.034Z,17.55
2018-06-29T02:42:36.346Z,17.59
2018-06-29T02:44:48.821Z,17.61
2018-06-29T02:47:01.175Z,17.63
2018-06-29T02:49:13.634Z,17.65
2018-06-29T02:51:25.970Z,17.68
2018-06-29T02:53:38.330Z,17.71
2018-06-29T02:55:50.679Z,17.75
2018-06-29T02:58:03.114Z,17.78
2018-06-29T03:00:15.515Z,17.78
2018-06-29T03:02:27.892Z,17.82
2018-06-29T03:04:40.201Z,17.82
2018-06-29T03:06:52.552Z,17.83
2018-06-29T03:09:06.903Z,17.84
2018-06-29T03:11:19.447Z,17.82
2018-06-29T03:13:31.882Z,17.83
2018-06-29T03:15:44.200Z,17.81
2018-06-29T03:17:56.621Z,17.80
2018-06-29T03:20:09.044Z,17.79
2018-06-29T03:22:21.549Z,17.79
2018-06-29T03:24:33.970Z,17.79
2018-06-29T03:26:46.270Z,17.82
2018-06-29T03:28:58.594Z,17.79
2018-06-29T03:31:10.947Z,17.79
2018-06-29T03:33:23.282Z,17.79
2018-06-29T03:35:35.650Z,17.79
2018-06-29T03:37:47.982Z,17.79
2018-06-29T03:40:00.322Z,17.78
2018-06-29T03:42:12.727Z,17.80
2018-06-29T03:44:25.179Z,17.81
2018-06-29T03:46:37.566Z,17.81
2018-06-29T03:48:50.081Z,17.82
2018-06-29T03:51:02.522Z,17.79
2018-06-29T03:53:14.850Z,17.78
2018-06-29T03:55:27.462Z,17.77
2018-06-29T03:57:39.786Z,17.78
2018-06-29T03:59:52.289Z,17.79
2018-06-29T04:02:04.654Z,17.79
2018-06-29T04:04:17.058Z,17.78
2018-06-29T04:06:29.527Z,17.79
2018-06-29T04:08:41.966Z,17.80
2018-06-29T04:10:54.310Z,17.80
2018-06-29T04:13:06.727Z,17.78
2018-06-29T04:15:19.134Z,17.78
2018-06-29T04:17:31.486Z,17.78
2018-06-29T04:19:43.822Z,17.78
2018-06-29T04:21:56.318Z,17.75
2018-06-29T04:24:08.697Z,17.73
2018-06-29T04:26:21.023Z,17.74
2018-06-29T04:28:33.361Z,17.81
2018-06-29T04:30:45.753Z,17.89
2018-06-29T04:32:58.151Z,18.01
2018-06-29T04:35:11.486Z,18.09
2018-06-29T04:37:23.857Z,18.12
2018-06-29T04:39:36.175Z,18.17
2018-06-29T04:41:48.505Z,18.25
2018-06-29T04:44:00.953Z,18.37
2018-06-29T04:46:13.406Z,18.48
2018-06-29T04:48:25.936Z,18.55
2018-06-29T04:50:38.307Z,18.63
2018-06-29T04:52:50.621Z,18.76
2018-06-29T04:55:03.023Z,18.82
2018-06-29T04:57:15.381Z,18.80
2018-06-29T04:59:27.709Z,18.72
2018-06-29T05:01:40.031Z,18.63
2018-06-29T05:03:52.729Z,18.66
2018-06-29T05:06:05.367Z,18.75
2018-06-29T05:08:17.778Z,18.82
2018-06-29T05:10:30.138Z,18.83
2018-06-29T05:12:45.211Z,18.84
2018-06-29T05:14:57.577Z,18.92
2018-06-29T05:17:09.926Z,19.03
2018-06-29T05:19:22.426Z,19.19
2018-06-29T05:21:34.985Z,19.33
2018-06-29T05:23:47.298Z,19.53
2018-06-29T05:25:59.778Z,19.75
2018-06-29T05:28:12.134Z,19.94
2018-06-29T05:30:24.515Z,20.00
2018-06-29T05:32:37.214Z,19.88
2018-06-29T05:34:49.618Z,19.82
2018-06-29T05:37:02.046Z,19.78
2018-06-29T05:39:14.466Z,19.75
2018-06-29T05:41:26.903Z,19.66
2018-06-29T05:43:39.127Z,19.62
2018-06-29T05:45:51.513Z,19.63
2018-06-29T05:48:03.958Z,19.65
2018-06-29T05:50:16.426Z,19.66
2018-06-29T05:52:28.958Z,19.69
2018-06-29T05:54:41.289Z,19.67
2018-06-29T05:56:53.658Z,19.57
2018-06-29T05:59:06.114Z,19.61
2018-06-29T06:01:18.571Z,19.73
2018-06-29T06:03:30.940Z,19.76
2018-06-29T06:05:43.388Z,19.81
2018-06-29T06:07:55.796Z,19.85
2018-06-29T06:10:08.440Z,19.93
2018-06-29T06:12:20.818Z,19.98
2018-06-29T06:14:33.160Z,19.86
2018-06-29T06:16:45.546Z,19.76
2018-06-29T06:19:09.118Z,19.65
2018-06-29T06:21:21.549Z,19.51
2018-06-29T06:23:34.281Z,19.42
2018-06-29T06:25:48.066Z,19.37
2018-06-29T06:28:00.493Z,19.38
2018-06-29T06:30:12.858Z,19.42
2018-06-29T06:32:25.549Z,19.50
2018-06-29T06:34:37.938Z,19.66
2018-06-29T06:36:50.305Z,19.93
2018-06-29T06:39:02.875Z,20.18
2018-06-29T06:41:15.233Z,20.31
2018-06-29T06:43:27.769Z,20.37
2018-06-29T06:45:40.276Z,20.43
2018-06-29T06:47:52.636Z,20.38
2018-06-29T06:50:05.275Z,20.32
2018-06-29T06:52:17.604Z,20.30
2018-06-29T06:54:30.314Z,20.34
2018-06-29T06:56:42.642Z,20.46
2018-06-29T06:58:55.043Z,20.69
2018-06-29T07:01:07.373Z,20.89
2018-06-29T07:03:19.748Z,21.04
2018-06-29T07:05:32.134Z,21.12
2018-06-29T07:07:44.598Z,21.12
2018-06-29T07:09:57.005Z,21.11
2018-06-29T07:12:09.337Z,21.10
2018-06-29T07:14:21.726Z,21.10
2018-06-29T07:16:34.215Z,21.14
2018-06-29T07:18:46.582Z,21.17
2018-06-29T07:20:59.052Z,21.17
2018-06-29T07:23:11.458Z,21.20
2018-06-29T07:25:23.882Z,21.15
2018-06-29T07:27:36.230Z,21.04
2018-06-29T07:29:48.546Z,20.96
2018-06-29T07:32:00.922Z,20.90
2018-06-29T07:34:13.223Z,20.82
2018-06-29T07:36:25.670Z,20.75
2018-06-29T07:38:38.188Z,20.65
2018-06-29T07:40:50.509Z,20.60
2018-06-29T07:43:02.874Z,20.57
2018-06-29T07:45:15.285Z,20.60
2018-06-29T07:47:28.178Z,20.62
2018-06-29T07:49:40.522Z,20.69
2018-06-29T07:51:52.990Z,20.77
2018-06-29T07:54:05.298Z,20.84
2018-06-29T07:56:17.721Z,20.91
2018-06-29T07:58:30.086Z,21.07
2018-06-29T08:00:42.513Z,21.25
2018-06-29T08:02:54.864Z,21.49
2018-06-29T08:05:07.172Z,21.59
2018-06-29T08:07:19.496Z,21.61
2018-06-29T08:09:32.239Z,21.60
2018-06-29T08:11:44.551Z,21.56
2018-06-29T08:13:57.108Z,21.54
2018-06-29T08:16:09.538Z,21.54
2018-06-29T08:18:22.631Z,21.56
2018-06-29T08:20:34.997Z,21.61
2018-06-29T08:22:47.335Z,21.61
2018-06-29T08:25:14.504Z,21.59
2018-06-29T08:27:26.878Z,21.47
2018-06-29T08:29:39.218Z,21.40
2018-06-29T08:31:51.554Z,21.38
2018-06-29T08:34:04.050Z,21.29
2018-06-29T08:36:16.510Z,21.22
2018-06-29T08:38:28.864Z,21.18
2018-06-29T08:40:41.341Z,21.18
2018-06-29T08:42:53.691Z,21.12
2018-06-29T08:45:06.983Z,21.10
2018-06-29T08:47:19.390Z,21.10
2018-06-29T08:49:31.860Z,21.16
2018-06-29T08:51:44.304Z,21.13
2018-06-29T08:53:56.662Z,21.25
2018-06-29T08:56:09.159Z,21.45
2018-06-29T08:58:21.707Z,21.52
2018-06-29T09:00:34.190Z,21.60
2018-06-29T09:02:48.257Z,21.70
2018-06-29T09:05:00.687Z,21.83
2018-06-29T09:07:13.134Z,21.89
2018-06-29T09:09:26.103Z,21.98
2018-06-29T09:11:38.818Z,22.10
2018-06-29T09:13:51.241Z,22.22
2018-06-29T09:16:03.642Z,22.36
2018-06-29T09:18:16.234Z,22.57
2018-06-29T09:20:28.658Z,22.79
2018-06-29T09:22:41.087Z,23.07
2018-06-29T09:24:53.490Z,23.35
2018-06-29T09:27:05.934Z,23.49
2018-06-29T09:29:18.317Z,23.48
2018-06-29T09:31:32.115Z,23.42
2018-06-29T09:33:45.942Z,23.25
2018-06-29T09:35:58.355Z,23.08
2018-06-29T09:38:10.663Z,22.90
2018-06-29T09:40:23.055Z,22.80
2018-06-29T09:42:35.788Z,22.65
2018-06-29T09:44:48.166Z,22.56
2018-06-29T09:47:01.838Z,22.50
2018-06-29T09:49:14.223Z,22.39
2018-06-29T09:51:27.259Z,22.40
2018-06-29T09:53:39.620Z,22.40
2018-06-29T09:55:53.151Z,22.40
2018-06-29T09:58:05.631Z,22.41
2018-06-29T10:00:27.406Z,22.53
2018-06-29T10:02:41.441Z,22.69
2018-06-29T10:04:53.899Z,22.81
2018-06-29T10:07:06.471Z,22.85
2018-06-29T10:09:20.653Z,23.12
2018-06-29T10:11:34.785Z,23.61
2018-06-29T10:13:47.147Z,23.84
2018-06-29T10:15:59.579Z,23.94
2018-06-29T10:18:11.981Z,23.98
2018-06-29T10:20:24.631Z,24.06
2018-06-29T10:22:36.939Z,24.12
2018-06-29T10:24:51.062Z,24.23
2018-06-29T10:27:03.644Z,24.38
2018-06-29T10:29:17.380Z,24.42
2018-06-29T10:31:30.597Z,24.35
2018-06-29T10:33:43.007Z,24.49
2018-06-29T10:35:55.500Z,24.66
2018-06-29T10:38:08.370Z,24.84
2018-06-29T10:40:20.886Z,25.08
2018-06-29T10:42:33.249Z,25.24
2018-06-29T10:44:45.974Z,25.30
2018-06-29T10:46:59.142Z,25.29
2018-06-29T10:49:12.670Z,25.30
2018-06-29T10:51:26.278Z,25.25
2018-06-29T10:53:38.671Z,25.26
2018-06-29T10:55:51.075Z,25.54
2018-06-29T10:58:03.414Z,25.85
2018-06-29T11:00:15.896Z,26.14
2018-06-29T11:02:28.979Z,26.33
2018-06-29T11:04:41.626Z,26.55
2018-06-29T11:06:54.285Z,26.65
2018-06-29T11:09:09.390Z,26.91
2018-06-29T11:11:21.737Z,27.03
2018-06-29T11:13:34.749Z,27.13
2018-06-29T11:15:47.156Z,27.23
2018-06-29T11:18:02.917Z,27.34
2018-06-29T11:20:15.368Z,27.21
2018-06-29T11:22:28.302Z,27.04
2018-06-29T11:24:40.778Z,27.05
2018-06-29T11:26:53.223Z,27.17
2018-06-29T11:29:05.623Z,27.21
2018-06-29T11:31:18.009Z,27.21
2018-06-29T11:33:30.407Z,27.23
2018-06-29T11:35:42.781Z,27.35
2018-06-29T11:37:55.133Z,27.34
2018-06-29T11:40:07.587Z,27.40
2018-06-29T11:42:20.018Z,27.49
2018-06-29T11:44:33.211Z,27.30
2018-06-29T11:46:45.611Z,27.10
2018-06-29T11:48:58.447Z,26.96
2018-06-29T11:51:10.972Z,26.81
2018-06-29T11:53:23.346Z,26.69
2018-06-29T11:55:35.855Z,26.49
2018-06-29T11:57:48.375Z,26.52
2018-06-29T12:00:01.320Z,26.76
2018-06-29T12:02:13.706Z,26.78
2018-06-29T12:04:27.302Z,26.80
2018-06-29T12:06:40.103Z,26.78
2018-06-29T12:08:52.587Z,26.84
2018-06-29T12:11:06.585Z,26.90
2018-06-29T12:13:19.107Z,26.95
2018-06-29T12:15:31.514Z,26.96
2018-06-29T12:17:43.929Z,27.00
2018-06-29T12:19:58.511Z,26.98
2018-06-29T12:22:11.070Z,27.12
2018-06-29T12:24:25.224Z,27.26
2018-06-29T12:26:39.282Z,27.26
2018-06-29T12:28:53.763Z,27.19
2018-06-29T12:31:06.803Z,27.15
2018-06-29T12:33:19.190Z,27.04
2018-06-29T12:35:32.754Z,26.82
2018-06-29T12:37:45.535Z,26.77
2018-06-29T12:39:59.014Z,26.77
2018-06-29T12:42:12.363Z,26.69
2018-06-29T12:44:24.796Z,26.75
2018-06-29T12:46:37.218Z,26.90
2018-06-29T12:48:54.714Z,27.11
2018-06-29T12:51:07.134Z,27.10
2018-06-29T12:53:21.514Z,27.17
2018-06-29T12:55:34.051Z,27.23
2018-06-29T12:57:46.530Z,27.23
2018-06-29T12:59:58.844Z,27.13
2018-06-29T13:02:12.401Z,26.90
2018-06-29T13:04:24.816Z,26.87
2018-06-29T13:06:37.454Z,26.94
2018-06-29T13:08:51.166Z,27.03
2018-06-29T13:13:21.959Z,27.07
2018-06-29T13:15:34.349Z,27.06
2018-06-29T13:17:49.011Z,27.15
2018-06-29T13:20:03.070Z,27.33
2018-06-29T13:22:15.763Z,27.41
2018-06-29T13:24:28.727Z,27.43
2018-06-29T13:26:42.070Z,27.51
2018-06-29T13:28:55.577Z,27.57
2018-06-29T13:31:08.252Z,27.64
2018-06-29T13:33:21.122Z,27.62
2018-06-29T13:35:34.372Z,27.66
2018-06-29T13:37:47.023Z,27.57
2018-06-29T13:39:59.435Z,27.44
2018-06-29T13:42:12.482Z,27.54
2018-06-29T13:44:24.976Z,27.68
2018-06-29T13:46:37.401Z,27.72
2018-06-29T13:48:50.924Z,27.76
2018-06-29T13:51:03.510Z,27.80
2018-06-29T13:53:15.932Z,27.93
2018-06-29T13:55:28.353Z,28.05
2018-06-29T13:57:42.399Z,28.01
2018-06-29T13:59:56.883Z,27.93
2018-06-29T14:02:10.271Z,27.99
2018-06-29T14:04:22.632Z,28.02
2018-06-29T14:06:35.363Z,27.87
2018-06-29T14:08:48.384Z,27.87
2018-06-29T14:11:00.770Z,27.85
2018-06-29T14:13:13.218Z,27.80
2018-06-29T14:15:26.899Z,27.78
2018-06-29T14:17:39.870Z,27.80
2018-06-29T14:19:52.664Z,27.81
2018-06-29T14:22:12.131Z,27.90
2018-06-29T14:24:28.660Z,28.00
2018-06-29T14:26:44.951Z,28.07
2018-06-29T14:28:58.028Z,28.09
2018-06-29T14:31:10.293Z,28.03
2018-06-29T14:33:22.997Z,28.02
2018-06-29T14:35:38.335Z,27.86
2018-06-29T14:37:52.478Z,27.86
2018-06-29T14:40:06.686Z,27.80
2018-06-29T14:42:19.153Z,27.74
2018-06-29T14:44:31.774Z,27.74
2018-06-29T14:46:44.126Z,27.71
2018-06-29T14:48:57.595Z,27.69
2018-06-29T14:51:10.706Z,27.64
2018-06-29T14:53:23.067Z,27.59
2018-06-29T14:55:35.574Z,27.56
2018-06-29T14:57:48.051Z,27.61
2018-06-29T15:00:04.908Z,27.62
2018-06-29T15:02:18.139Z,27.58
2018-06-29T15:04:30.530Z,27.53
2018-06-29T15:06:42.994Z,27.51
2018-06-29T15:08:55.563Z,27.47
2018-06-29T15:11:08.152Z,27.42
2018-06-29T15:13:21.029Z,27.37
2018-06-29T15:15:33.503Z,27.30
2018-06-29T15:17:46.205Z,27.28
2018-06-29T15:19:58.502Z,27.28
2018-06-29T15:22:10.987Z,27.32
2018-06-29T15:24:23.354Z,27.30
2018-06-29T15:26:35.766Z,27.32
2018-06-29T15:28:49.174Z,27.30
2018-06-29T15:31:01.507Z,27.25
2018-06-29T15:33:15.000Z,27.17
2018-06-29T15:35:27.402Z,27.18
2018-06-29T15:37:39.889Z,27.15
2018-06-29T15:39:52.390Z,27.20
2018-06-29T15:42:04.900Z,27.39
2018-06-29T15:44:18.083Z,27.53
2018-06-29T15:46:30.846Z,27.66
2018-06-29T15:48:43.374Z,27.62
2018-06-29T15:50:55.783Z,27.64
2018-06-29T15:53:08.190Z,27.68
2018-06-29T15:55:22.296Z,27.73
2018-06-29T15:57:35.301Z,27.79
2018-06-29T15:59:47.830Z,27.81
2018-06-29T16:02:00.323Z,27.77
2018-06-29T16:04:12.882Z,27.69
2018-06-29T16:06:25.705Z,27.64
2018-06-29T16:08:39.750Z,27.66
2018-06-29T16:10:52.173Z,27.61
2018-06-29T16:13:04.694Z,27.60
2018-06-29T16:15:17.112Z,27.59
2018-06-29T16:17:30.141Z,27.59
2018-06-29T16:19:43.191Z,27.63
2018-06-29T16:21:57.023Z,27.66
2018-06-29T16:24:09.804Z,27.68
2018-06-29T16:26:22.210Z,27.72
2018-06-29T16:28:35.572Z,27.78
2018-06-29T16:30:48.052Z,27.79
2018-06-29T16:33:00.580Z,27.82
2018-06-29T16:35:13.231Z,27.86
2018-06-29T16:37:25.817Z,27.81
2018-06-29T16:39:38.283Z,27.72
2018-06-29T16:41:50.881Z,27.72
2018-06-29T16:44:03.323Z,27.68
2018-06-29T16:46:19.355Z,27.63
2018-06-29T16:48:31.849Z,27.64
2018-06-29T16:50:44.403Z,27.63
2018-06-29T16:52:56.891Z,27.65
2018-06-29T16:55:09.329Z,27.63
2018-06-29T16:57:23.784Z,27.61
2018-06-29T16:59:36.327Z,27.60
2018-06-29T17:01:48.723Z,27.61
2018-06-29T17:04:01.187Z,27.54
2018-06-29T17:06:16.825Z,27.54
2018-06-29T17:08:29.248Z,27.51
2018-06-29T17:10:41.658Z,27.55
2018-06-29T17:12:54.044Z,27.55
2018-06-29T17:15:08.857Z,27.55
2018-06-29T17:17:21.232Z,27.51
2018-06-29T17:19:35.504Z,27.52
2018-06-29T17:21:48.776Z,27.51
2018-06-29T17:24:02.249Z,27.49
2018-06-29T17:26:14.712Z,27.51
2018-06-29T17:28:27.075Z,27.49
2018-06-29T17:30:39.527Z,27.49
2018-06-29T17:32:52.359Z,27.49
2018-06-29T17:35:06.300Z,27.45
2018-06-29T17:37:18.795Z,27.40
2018-06-29T17:39:32.251Z,27.33
2018-06-29T17:41:44.646Z,27.32
2018-06-29T17:43:57.001Z,27.29
2018-06-29T17:46:11.125Z,27.30
2018-06-29T17:48:23.645Z,27.30
2018-06-29T17:50:36.041Z,27.28
2018-06-29T17:52:48.538Z,27.25
2018-06-29T17:55:00.943Z,27.15
2018-06-29T17:57:13.674Z,27.09
2018-06-29T17:59:26.211Z,27.04
2018-06-29T18:01:38.594Z,26.99
2018-06-29T18:03:50.983Z,26.94
2018-06-29T18:06:03.496Z,26.88
2018-06-29T18:08:15.902Z,26.81
2018-06-29T18:10:28.221Z,26.76
2018-06-29T18:12:40.790Z,26.72
2018-06-29T18:14:53.053Z,26.64
2018-06-29T18:17:05.510Z,26.60
2018-06-29T18:19:18.007Z,26.54
2018-06-29T18:21:30.461Z,26.50
2018-06-29T18:23:42.998Z,26.48
2018-06-29T18:25:55.385Z,26.46
2018-06-29T18:28:07.893Z,26.45
2018-06-29T18:30:20.417Z,26.44
2018-06-29T18:32:32.818Z,26.42
2018-06-29T18:34:45.286Z,26.41
2018-06-29T18:36:57.603Z,26.35
2018-06-29T18:39:12.547Z,26.34
2018-06-29T18:41:25.131Z,26.31
2018-06-29T18:43:37.589Z,26.26
2018-06-29T18:45:50.109Z,26.26
2018-06-29T18:48:02.730Z,26.20
2018-06-29T18:50:15.191Z,26.10
2018-06-29T18:52:27.576Z,25.98
2018-06-29T18:54:40.169Z,25.84
2018-06-29T18:56:52.570Z,25.67
2018-06-29T18:59:04.970Z,25.50
2018-06-29T19:01:17.508Z,25.39
2018-06-29T19:03:29.904Z,25.26
2018-06-29T19:05:42.647Z,25.09
2018-06-29T19:07:55.086Z,24.93
2018-06-29T19:10:07.505Z,24.79
2018-06-29T19:12:19.927Z,24.72
2018-06-29T19:14:32.464Z,24.68
2018-06-29T19:16:44.815Z,24.63
2018-06-29T19:18:57.217Z,24.50
2018-06-29T19:21:09.669Z,24.43
2018-06-29T19:23:21.978Z,24.34
2018-06-29T19:25:34.425Z,24.26
2018-06-29T19:27:47.009Z,24.17
2018-06-29T19:29:59.434Z,24.07
2018-06-29T19:32:12.850Z,23.88
2018-06-29T19:34:25.383Z,23.74
2018-06-29T19:36:37.794Z,23.70
2018-06-29T19:38:50.236Z,23.64
2018-06-29T19:41:02.881Z,23.55
2018-06-29T19:43:15.286Z,23.45
2018-06-29T19:45:28.011Z,23.43
2018-06-29T19:47:40.414Z,23.39
2018-06-29T19:49:52.753Z,23.30
2018-06-29T19:52:05.115Z,23.20
2018-06-29T19:54:18.174Z,23.17
2018-06-29T19:56:30.578Z,23.12
2018-06-29T19:58:43.365Z,23.05
2018-06-29T20:00:55.834Z,22.97
2018-06-29T20:03:08.169Z,22.92
2018-06-29T20:05:20.848Z,22.89
2018-06-29T20:07:33.266Z,22.82
2018-06-29T20:09:45.745Z,22.81
2018-06-29T20:11:58.110Z,22.66
2018-06-29T20:14:13.022Z,22.59
2018-06-29T20:16:25.497Z,22.60
2018-06-29T20:18:37.942Z,22.54
2018-06-29T20:20:50.320Z,22.43
2018-06-29T20:23:02.954Z,22.37
2018-06-29T20:25:15.352Z,22.32
2018-06-29T20:27:28.291Z,22.27
2018-06-29T20:29:40.942Z,22.19
2018-06-29T20:31:53.841Z,22.13
2018-06-29T20:34:06.429Z,22.06
2018-06-29T20:36:19.508Z,22.01
2018-06-29T20:38:32.010Z,21.97
2018-06-29T20:40:44.516Z,21.93
2018-06-29T20:42:58.729Z,21.86
2018-06-29T20:45:11.308Z,21.84
2018-06-29T20:47:24.217Z,21.76
2018-06-29T20:49:36.748Z,21.75
2018-06-29T20:51:49.468Z,21.69
2018-06-29T20:54:02.271Z,21.68
2018-06-29T20:56:14.765Z,21.63
2018-06-29T20:58:27.165Z,21.56
2018-06-29T21:00:39.797Z,21.45
2018-06-29T21:02:52.450Z,21.40
2018-06-29T21:05:05.186Z,21.36
2018-06-29T21:07:18.419Z,21.33
2018-06-29T21:09:31.347Z,21.20
2018-06-29T21:11:43.902Z,21.14
2018-06-29T21:13:57.161Z,21.05
2018-06-29T21:16:10.653Z,21.05
2018-06-29T21:18:24.187Z,21.03
2018-06-29T21:20:38.486Z,21.06
2018-06-29T21:22:51.355Z,21.04
2018-06-29T21:25:04.139Z,21.04
2018-06-29T21:27:17.791Z,20.98
2018-06-29T21:29:30.646Z,20.92
2018-06-29T21:31:43.967Z,20.89
2018-06-29T21:33:56.536Z,20.88
2018-06-29T21:36:09.765Z,20.87
2018-06-29T21:38:23.257Z,20.88
2018-06-29T21:40:36.727Z,20.86
2018-06-29T21:42:49.319Z,20.83
2018-06-29T21:45:02.209Z,20.79
2018-06-29T21:47:14.729Z,20.76
2018-06-29T21:49:27.124Z,20.69
2018-06-29T21:51:39.565Z,20.60
2018-06-29T21:53:52.354Z,20.56
2018-06-29T21:56:05.160Z,20.48
2018-06-29T21:58:17.843Z,20.44
2018-06-29T22:00:37.919Z,20.43
2018-06-29T22:02:50.844Z,20.44
2018-06-29T22:05:03.446Z,20.44
2018-06-29T22:07:15.833Z,20.41
2018-06-29T22:09:28.752Z,20.42
2018-06-29T22:11:42.115Z,20.40
2018-06-29T22:13:55.427Z,20.29
2018-06-29T22:16:07.954Z,20.23
2018-06-29T22:18:20.381Z,20.19
2018-06-29T22:20:32.881Z,20.13
2018-06-29T22:22:45.698Z,20.05
2018-06-29T22:25:00.344Z,20.01
2018-06-29T22:27:12.794Z,19.99
2018-06-29T22:29:25.262Z,20.02
2018-06-29T22:31:38.102Z,20.01
2018-06-29T22:33:51.447Z,19.99
2018-06-29T22:36:04.675Z,19.99
2018-06-29T22:38:17.227Z,19.98
2018-06-29T22:40:29.964Z,19.94
2018-06-29T22:42:42.514Z,19.92
2018-06-29T22:44:54.942Z,19.88
2018-06-29T22:47:08.004Z,19.79
2018-06-29T22:49:21.422Z,19.68
2018-06-29T22:51:34.251Z,19.57
2018-06-29T22:53:46.672Z,19.53
2018-06-29T22:56:00.536Z,19.53
2018-06-29T22:58:13.406Z,19.51
2018-06-29T23:00:26.054Z,19.50
2018-06-29T23:02:38.932Z,19.50
2018-06-29T23:04:52.933Z,19.53
2018-06-29T23:07:08.463Z,19.56
2018-06-29T23:09:21.624Z,19.54
2018-06-29T23:11:35.079Z,19.50
2018-06-29T23:13:47.820Z,19.49
2018-06-29T23:16:01.103Z,19.45
2018-06-29T23:18:13.957Z,19.36
2018-06-29T23:20:26.994Z,19.33
2018-06-29T23:22:40.464Z,19.30
2018-06-29T23:24:52.894Z,19.26
2018-06-29T23:27:05.946Z,19.23
2018-06-29T23:29:19.099Z,19.20
2018-06-29T23:31:31.971Z,19.20
2018-06-29T23:33:44.454Z,19.17
2018-06-29T23:35:58.563Z,19.13
2018-06-29T23:38:12.135Z,19.11
2018-06-29T23:40:24.552Z,19.07
2018-06-29T23:42:37.548Z,19.05
2018-06-29T23:44:50.845Z,19.04
2018-06-29T23:47:03.352Z,19.01
2018-06-29T23:49:16.613Z,18.97
2018-06-29T23:51:30.047Z,18.92
2018-06-29T23:53:42.704Z,18.92
2018-06-29T23:55:56.135Z,18.92
2018-06-29T23:58:09.076Z,18.87
